Flora, IL

01:07 PM CDT am 25. Oktober 2014 (GMT -0500)
Flora Municipal | Change Station
CLOSE
Current Station
Flughafen
Location: Flora,
Höhe: 472 ft
Wetterstationen in der Umgebung

Höhe 472 ft 38.67 °N, 88.45 °W | Updated 12 minutes ago

Heiter
Heiter
76 °F
gefühlte 76 °F
N
8
Wind Wechselnd Wind aus West-Nordwest

Heute
Max. -- | schwach -- °F
--% Regenrisiko
Gestern
Max. -- | schwach -- °F
Precip. -- inch
7:13 AM 6:01 PM
Erstes Viertel, 4% visible
Druck 30.01 inch
Sichtweite 10.0 Meilen
Wolken Heiter
Taupunkt 57 °F
Feuchtigkeit 52%
Regen 0.00 inch
Schneehöhe Nicht verfügbar..
UV 5 von 12
Pollen 2.00 von 12
Luftqualität Nicht verfügbar..
Flu Activity No Activity
METAR KFOA 251755Z AUTO 30007KT 10SM CLR 24/14 A3001 RMK AO2 T02430140 10243 20114

More Conditions Fewer Conditions

Druck 30.01 inch
Sichtweite 10.0 Meilen
Wolken Heiter
Taupunkt 57 °F
Feuchtigkeit 52%
Regen 0.00 inch
Schneehöhe Nicht verfügbar..
UV 5 von 12
Pollen 2.00 von 12
Luftqualität Nicht verfügbar..
Flu Activity No Activity
METAR KFOA 251755Z AUTO 30007KT 10SM CLR 24/14 A3001 RMK AO2 T02430140 10243 20114

More Conditions Fewer Conditions

10-Day Weather Forecast

Almanac

Astronomie

Oct. 25, 2014 Aufgang Untergang
Genaue Zeit 07:13 CDT 18:01 CDT
Bürgerliche Dämmerung 06:45 CDT 18:29 CDT
Nautische Dämmerung 06:14 CDT 19:00 CDT
Astronomische Dämmerung 05:44 CDT 19:30 CDT
Mond 08:51 CDT 19:25 CDT
Länge des sichtbaren Lichts 11h 43m
Tageslänge
10h 48m
Tomorrow will be 2m 19s shorter.
Erstes Viertel, 4% of the Moon is Illuminated
Heute
Erstes Viertel
Okt 30
Erstes Viertel
Nov 6
Vollmond
Nov 14
Letztes Viertel
Nov 22
Neu

Heutige Rekorde

State Highs State Lows

Community

WunderPhotos

Upload Photos

1,764,926 Fotos hochgeladen!

Nearby

Schneehöhe

Station Depth Höhe
Kein Neuschnee gemeldet.

Erdbebenaktivität

Stadt Distance Mag. Time & Date
No recent earthquake activity has been reported nearby.
Minimum magnitude displayed is 2.5.

küstennahe Wassertemperaturen

Ort Temperatur
Kein Stationsbericht

Wetterstationen in der Umgebung